createdAt,value
2022-08-24T00:00:43.666Z,100.00
2022-08-24T00:03:13.222Z,100.00
2022-08-24T00:05:41.110Z,100.00
2022-08-24T00:08:08.832Z,100.00
2022-08-24T00:10:36.692Z,100.00
2022-08-24T00:13:04.703Z,100.00
2022-08-24T00:15:32.677Z,100.00
2022-08-24T00:18:00.544Z,100.00
2022-08-24T00:20:29.752Z,100.00
2022-08-24T00:22:57.508Z,100.00
2022-08-24T00:25:25.603Z,100.00
2022-08-24T00:27:53.731Z,100.00
2022-08-24T00:30:23.302Z,100.00
2022-08-24T00:32:51.501Z,100.00
2022-08-24T00:35:19.939Z,100.00
2022-08-24T00:37:50.403Z,100.00
2022-08-24T00:40:22.982Z,100.00
2022-08-24T00:42:51.297Z,100.00
2022-08-24T00:45:20.678Z,100.00
2022-08-24T00:47:52.932Z,100.00
2022-08-24T00:50:23.090Z,100.00
2022-08-24T00:52:57.949Z,100.00
2022-08-24T00:55:30.422Z,100.00
2022-08-24T00:58:01.534Z,100.00
2022-08-24T01:00:34.448Z,100.00
2022-08-24T01:03:06.893Z,100.00
2022-08-24T01:05:36.634Z,100.00
2022-08-24T01:08:08.912Z,100.00
2022-08-24T01:10:40.618Z,100.00
2022-08-24T01:13:11.599Z,100.00
2022-08-24T01:15:43.699Z,100.00
2022-08-24T01:18:34.947Z,100.00
2022-08-24T01:21:08.746Z,100.00
2022-08-24T01:23:41.337Z,100.00
2022-08-24T01:26:12.245Z,100.00
2022-08-24T01:28:45.221Z,100.00
2022-08-24T01:31:13.617Z,100.00
2022-08-24T01:33:41.817Z,100.00
2022-08-24T01:36:21.121Z,100.00
2022-08-24T01:39:14.748Z,100.00
2022-08-24T01:41:42.581Z,100.00
2022-08-24T01:44:10.994Z,100.00
2022-08-24T01:46:38.784Z,100.00
2022-08-24T01:49:06.553Z,100.00
2022-08-24T01:51:35.017Z,100.00
2022-08-24T01:54:04.826Z,100.00
2022-08-24T01:56:33.748Z,100.00
2022-08-24T01:59:02.507Z,100.00
2022-08-24T02:01:32.180Z,100.00
2022-08-24T02:04:03.766Z,100.00
2022-08-24T02:06:32.952Z,100.00
2022-08-24T02:09:01.028Z,100.00
2022-08-24T02:11:30.167Z,100.00
2022-08-24T02:13:58.484Z,100.00
2022-08-24T02:16:28.496Z,100.00
2022-08-24T02:18:56.396Z,100.00
2022-08-24T02:21:24.253Z,100.00
2022-08-24T02:23:52.829Z,100.00
2022-08-24T02:26:20.531Z,100.00
2022-08-24T02:28:49.666Z,100.00
2022-08-24T02:31:17.438Z,100.00
2022-08-24T02:33:45.221Z,100.00
2022-08-24T02:36:25.431Z,100.00
2022-08-24T02:38:54.870Z,100.00
2022-08-24T02:41:24.692Z,100.00
2022-08-24T02:43:54.366Z,100.00
2022-08-24T02:46:27.182Z,100.00
2022-08-24T02:48:58.089Z,100.00
2022-08-24T02:51:44.020Z,100.00
2022-08-24T02:54:17.300Z,100.00
2022-08-24T02:56:44.954Z,100.00
2022-08-24T02:59:14.074Z,100.00
2022-08-24T03:01:41.905Z,100.00
2022-08-24T03:04:10.995Z,100.00
2022-08-24T03:06:38.773Z,100.00
2022-08-24T03:09:06.465Z,100.00
2022-08-24T03:11:34.287Z,100.00
2022-08-24T03:14:02.031Z,100.00
2022-08-24T03:16:32.283Z,100.00
2022-08-24T03:19:00.199Z,100.00
2022-08-24T03:21:28.313Z,100.00
2022-08-24T03:23:56.056Z,100.00
2022-08-24T03:26:24.047Z,100.00
2022-08-24T03:28:52.901Z,100.00
2022-08-24T03:31:20.770Z,100.00
2022-08-24T03:33:49.898Z,100.00
2022-08-24T03:36:17.763Z,100.00
2022-08-24T03:38:45.557Z,100.00
2022-08-24T03:41:13.472Z,100.00
2022-08-24T03:43:48.673Z,100.00
2022-08-24T03:46:19.175Z,100.00
2022-08-24T03:48:49.070Z,100.00
2022-08-24T03:51:19.998Z,100.00
2022-08-24T03:53:48.025Z,100.00
2022-08-24T03:56:17.413Z,100.00
2022-08-24T03:58:45.920Z,100.00
2022-08-24T04:01:14.954Z,100.00
2022-08-24T04:03:44.584Z,100.00
2022-08-24T04:06:15.941Z,100.00
2022-08-24T04:08:43.923Z,100.00
2022-08-24T04:11:12.986Z,100.00
2022-08-24T04:13:40.936Z,100.00
2022-08-24T04:16:10.469Z,100.00
2022-08-24T04:18:38.351Z,100.00
2022-08-24T04:21:06.450Z,100.00
2022-08-24T04:23:46.994Z,100.00
2022-08-24T04:26:16.638Z,100.00
2022-08-24T04:29:03.097Z,100.00
2022-08-24T04:31:36.742Z,100.00
2022-08-24T04:34:05.268Z,100.00
2022-08-24T04:36:34.215Z,100.00
2022-08-24T04:39:04.455Z,100.00
2022-08-24T04:41:32.205Z,100.00
2022-08-24T04:44:02.787Z,100.00
2022-08-24T04:46:30.972Z,100.00
2022-08-24T04:48:58.738Z,100.00
2022-08-24T04:51:26.745Z,100.00
2022-08-24T04:53:57.052Z,100.00
2022-08-24T04:56:26.872Z,100.00
2022-08-24T04:58:56.325Z,100.00
2022-08-24T05:01:26.847Z,100.00
2022-08-24T05:03:55.826Z,100.00
2022-08-24T05:06:27.012Z,100.00
2022-08-24T05:08:55.111Z,100.00
2022-08-24T05:11:23.648Z,100.00
2022-08-24T05:13:54.675Z,100.00
2022-08-24T05:16:23.263Z,100.00
2022-08-24T05:18:51.640Z,100.00
2022-08-24T05:21:22.371Z,100.00
2022-08-24T05:23:50.704Z,100.00
2022-08-24T05:26:21.054Z,100.00
2022-08-24T05:28:49.199Z,100.00
2022-08-24T05:31:21.952Z,100.00
2022-08-24T05:33:50.679Z,100.00
2022-08-24T05:36:20.886Z,100.00
2022-08-24T05:38:49.200Z,100.00
2022-08-24T05:41:17.711Z,100.00
2022-08-24T05:43:45.718Z,100.00
2022-08-24T05:46:14.314Z,100.00
2022-08-24T05:48:43.480Z,100.00
2022-08-24T05:51:20.925Z,100.00
2022-08-24T05:53:49.193Z,100.00
2022-08-24T05:56:18.913Z,100.00
2022-08-24T05:58:47.276Z,100.00
2022-08-24T06:01:17.607Z,100.00
2022-08-24T06:03:47.349Z,100.00
2022-08-24T06:06:16.319Z,100.00
2022-08-24T06:08:46.518Z,100.00
2022-08-24T06:11:24.790Z,100.00
2022-08-24T06:14:01.205Z,100.00
2022-08-24T06:16:29.292Z,100.00
2022-08-24T06:18:58.451Z,100.00
2022-08-24T06:21:28.696Z,100.00
2022-08-24T06:23:57.598Z,100.00
2022-08-24T06:26:43.525Z,100.00
2022-08-24T06:29:16.787Z,100.00
2022-08-24T06:31:46.979Z,100.00
2022-08-24T06:34:17.763Z,100.00
2022-08-24T06:36:45.953Z,100.00
2022-08-24T06:39:14.189Z,100.00
2022-08-24T06:41:42.945Z,100.00
2022-08-24T06:44:12.365Z,100.00
2022-08-24T06:46:40.547Z,100.00
2022-08-24T06:49:08.333Z,100.00
2022-08-24T06:51:37.446Z,100.00
2022-08-24T06:54:05.518Z,99.76
2022-08-24T06:56:33.290Z,97.31
2022-08-24T06:59:03.256Z,99.96
2022-08-24T07:01:31.675Z,94.63
2022-08-24T07:03:59.708Z,96.02
2022-08-24T07:06:28.034Z,89.96
2022-08-24T07:08:57.162Z,87.93
2022-08-24T07:11:25.478Z,84.34
2022-08-24T07:13:53.251Z,85.32
2022-08-24T07:16:23.314Z,88.60
2022-08-24T07:18:51.366Z,82.36
2022-08-24T07:21:19.869Z,82.37
2022-08-24T07:23:48.535Z,77.89
2022-08-24T07:26:21.439Z,78.05
2022-08-24T07:28:50.658Z,78.67
2022-08-24T07:31:18.698Z,80.94
2022-08-24T07:33:46.464Z,77.80
2022-08-24T07:36:21.873Z,73.07
2022-08-24T07:38:52.162Z,77.02
2022-08-24T07:41:46.873Z,70.83
2022-08-24T07:44:10.019Z,74.31
2022-08-24T07:46:38.964Z,73.34
2022-08-24T07:49:12.572Z,67.14
2022-08-24T07:51:48.768Z,69.40
2022-08-24T07:54:16.711Z,67.30
2022-08-24T07:56:45.802Z,66.73
2022-08-24T07:59:13.748Z,62.17
2022-08-24T08:01:42.256Z,61.11
2022-08-24T08:04:10.811Z,60.97
2022-08-24T08:06:38.744Z,59.16
2022-08-24T08:09:06.903Z,57.28
2022-08-24T08:11:35.139Z,54.09
2022-08-24T08:14:04.287Z,53.10
2022-08-24T08:16:32.213Z,55.29
2022-08-24T08:19:09.921Z,55.94
2022-08-24T08:22:00.837Z,55.44
2022-08-24T08:24:28.807Z,53.23
2022-08-24T08:26:57.632Z,53.23
2022-08-24T08:29:27.746Z,56.26
2022-08-24T08:31:55.938Z,53.17
2022-08-24T08:34:23.810Z,53.86
2022-08-24T08:36:52.205Z,51.80
2022-08-24T08:39:23.425Z,51.13
2022-08-24T08:42:19.560Z,50.80
2022-08-24T08:45:04.172Z,53.08
2022-08-24T08:50:47.613Z,49.81
2022-08-24T08:53:41.570Z,48.92
2022-08-24T08:56:21.661Z,50.92
2022-08-24T08:59:04.254Z,48.29
2022-08-24T09:01:44.249Z,48.67
2022-08-24T09:04:39.765Z,50.26
2022-08-24T09:07:25.618Z,47.56
2022-08-24T09:10:23.588Z,48.72
2022-08-24T09:13:15.065Z,45.76
2022-08-24T09:15:58.006Z,49.36
2022-08-24T09:18:42.411Z,49.06
2022-08-24T09:21:29.425Z,49.37
2022-08-24T09:24:09.893Z,48.33
2022-08-24T09:26:48.391Z,46.57
2022-08-24T09:29:18.868Z,45.37
2022-08-24T09:32:00.272Z,47.75
2022-08-24T09:34:36.936Z,45.52
2022-08-24T09:37:43.706Z,47.15
2022-08-24T09:40:29.513Z,44.64
2022-08-24T09:43:39.903Z,44.02
2022-08-24T09:46:29.576Z,43.45
2022-08-24T09:49:28.367Z,43.25
2022-08-24T09:52:31.647Z,41.43
2022-08-24T09:55:23.795Z,40.26
2022-08-24T09:58:09.074Z,41.28
2022-08-24T10:00:45.080Z,43.08
2022-08-24T10:03:34.964Z,43.09
2022-08-24T10:06:18.926Z,42.96
2022-08-24T10:09:13.064Z,41.74
2022-08-24T10:11:53.367Z,40.67
2022-08-24T10:14:37.826Z,39.91
2022-08-24T10:17:14.845Z,39.14
2022-08-24T10:19:58.966Z,38.17
2022-08-24T10:22:56.004Z,38.61
2022-08-24T10:25:38.748Z,39.80
2022-08-24T10:28:35.163Z,36.98
2022-08-24T10:31:08.722Z,40.26
2022-08-24T10:33:49.702Z,37.05
2022-08-24T10:36:42.352Z,38.38
2022-08-24T10:39:41.441Z,36.65
2022-08-24T10:43:01.279Z,35.86
2022-08-24T10:45:50.995Z,35.95
2022-08-24T10:48:38.012Z,35.90
2022-08-24T10:51:23.822Z,36.10
2022-08-24T10:53:53.585Z,34.35
2022-08-24T10:56:28.627Z,34.34
2022-08-24T10:59:04.820Z,35.65
2022-08-24T11:01:37.211Z,33.66
2022-08-24T11:04:08.705Z,34.39
2022-08-24T11:06:39.095Z,34.84
2022-08-24T11:09:10.639Z,33.49
2022-08-24T11:11:40.889Z,32.94
2022-08-24T11:14:11.226Z,33.17
2022-08-24T11:16:42.795Z,32.50
2022-08-24T11:19:13.240Z,32.90
2022-08-24T11:21:49.029Z,33.11
2022-08-24T11:24:30.630Z,32.29
2022-08-24T11:27:02.409Z,32.86
2022-08-24T11:30:03.259Z,30.70
2022-08-24T11:32:39.410Z,30.96
2022-08-24T11:35:15.796Z,29.72
2022-08-24T11:37:43.921Z,29.94
2022-08-24T11:40:12.961Z,29.87
2022-08-24T11:42:55.250Z,30.32
2022-08-24T11:45:32.353Z,30.17
2022-08-24T11:48:12.347Z,29.66
2022-08-24T11:50:43.941Z,29.26
2022-08-24T11:53:22.452Z,29.75
2022-08-24T11:56:02.087Z,29.28
2022-08-24T11:58:54.550Z,28.63
2022-08-24T12:01:29.197Z,29.99
2022-08-24T12:04:13.515Z,30.88
2022-08-24T12:06:55.566Z,27.95
2022-08-24T12:09:41.285Z,27.56
2022-08-24T12:12:19.328Z,27.60
2022-08-24T12:15:00.160Z,27.42
2022-08-24T12:17:38.384Z,25.81
2022-08-24T12:20:15.982Z,27.07
2022-08-24T12:22:44.498Z,26.68
2022-08-24T12:25:28.068Z,26.28
2022-08-24T12:27:58.461Z,28.75
2022-08-24T12:30:27.887Z,27.57
2022-08-24T12:33:00.412Z,28.49
2022-08-24T12:35:33.431Z,24.31
2022-08-24T12:38:08.123Z,24.49
2022-08-24T12:40:41.630Z,25.52
2022-08-24T12:43:14.435Z,24.06
2022-08-24T12:45:42.398Z,24.85
2022-08-24T12:48:17.863Z,25.20
2022-08-24T12:51:03.175Z,25.22
2022-08-24T12:54:01.611Z,24.92
2022-08-24T12:57:02.578Z,23.76
2022-08-24T12:59:34.258Z,26.31
2022-08-24T13:02:05.255Z,24.49
2022-08-24T13:04:40.745Z,25.77
2022-08-24T13:07:14.931Z,23.74
2022-08-24T13:09:45.896Z,23.90
2022-08-24T13:12:51.853Z,25.24
2022-08-24T13:15:49.089Z,24.78
2022-08-24T13:18:50.565Z,25.61
2022-08-24T13:21:41.699Z,25.13
2022-08-24T13:24:50.206Z,25.70
2022-08-24T13:27:52.202Z,23.24
2022-08-24T13:30:28.726Z,24.52
2022-08-24T13:33:10.543Z,26.38
2022-08-24T13:36:05.086Z,23.88
2022-08-24T13:39:12.000Z,24.34
2022-08-24T13:41:55.141Z,23.52
2022-08-24T13:44:51.698Z,25.36
2022-08-24T13:47:26.165Z,24.11
2022-08-24T13:50:09.278Z,24.73
2022-08-24T13:52:49.274Z,23.98
2022-08-24T13:55:32.607Z,26.43
2022-08-24T13:58:22.380Z,27.22
2022-08-24T14:01:01.592Z,25.01
2022-08-24T14:04:03.516Z,24.95
2022-08-24T14:06:41.509Z,23.31
2022-08-24T14:09:28.433Z,23.71
2022-08-24T14:12:16.641Z,23.85
2022-08-24T14:14:56.625Z,23.98
2022-08-24T14:17:58.135Z,24.10
2022-08-24T14:20:51.441Z,24.31
2022-08-24T14:23:28.967Z,24.46
2022-08-24T14:26:30.021Z,27.02
2022-08-24T14:29:27.526Z,28.08
2022-08-24T14:32:34.841Z,25.47
2022-08-24T14:35:36.410Z,28.61
2022-08-24T14:38:23.559Z,26.05
2022-08-24T14:41:07.622Z,25.09
2022-08-24T14:43:59.149Z,25.91
2022-08-24T14:46:35.850Z,25.28
2022-08-24T14:49:16.332Z,28.44
2022-08-24T14:52:11.039Z,31.85
2022-08-24T14:54:52.113Z,31.83
2022-08-24T14:57:37.815Z,32.66
2022-08-24T15:00:13.619Z,33.04
2022-08-24T15:03:13.336Z,33.45
2022-08-24T15:05:58.932Z,32.50
2022-08-24T15:08:42.734Z,34.22
2022-08-24T15:11:13.185Z,34.38
2022-08-24T15:13:48.337Z,35.21
2022-08-24T15:16:21.220Z,35.11
2022-08-24T15:18:58.584Z,35.64
2022-08-24T15:21:40.941Z,36.51
2022-08-24T15:24:21.685Z,33.88
2022-08-24T15:26:58.631Z,34.98
2022-08-24T15:29:30.339Z,35.09
2022-08-24T15:32:04.771Z,35.30
2022-08-24T15:34:53.274Z,32.88
2022-08-24T15:37:34.201Z,32.93
2022-08-24T15:40:03.297Z,33.61
2022-08-24T15:42:33.775Z,34.53
2022-08-24T15:45:03.717Z,35.48
2022-08-24T15:47:34.171Z,37.25
2022-08-24T15:50:07.348Z,37.39
2022-08-24T15:52:57.763Z,35.98
2022-08-24T15:55:36.887Z,37.66
2022-08-24T15:58:22.599Z,38.06
2022-08-24T16:01:08.282Z,36.75
2022-08-24T16:03:49.079Z,37.28
2022-08-24T16:06:26.706Z,37.52
2022-08-24T16:08:59.646Z,39.16
2022-08-24T16:11:32.685Z,40.35
2022-08-24T16:14:01.358Z,38.51
2022-08-24T16:16:35.689Z,39.58
2022-08-24T16:19:08.677Z,39.13
2022-08-24T16:21:40.713Z,40.34
2022-08-24T16:24:13.115Z,40.33
2022-08-24T16:27:04.239Z,39.48
2022-08-24T16:29:54.501Z,40.37
2022-08-24T16:32:30.173Z,42.36
2022-08-24T16:35:19.196Z,42.77
2022-08-24T16:37:48.576Z,41.82
2022-08-24T16:40:17.276Z,42.10
2022-08-24T16:42:45.058Z,42.13
2022-08-24T16:45:17.339Z,43.55
2022-08-24T16:47:46.796Z,43.29
2022-08-24T16:50:15.339Z,44.24
2022-08-24T16:52:43.188Z,44.00
2022-08-24T16:55:14.684Z,44.22
2022-08-24T16:57:43.851Z,44.53
2022-08-24T17:00:16.009Z,45.52
2022-08-24T17:02:44.269Z,45.99
2022-08-24T17:05:12.350Z,46.88
2022-08-24T17:07:40.153Z,48.48
2022-08-24T17:10:10.899Z,50.30
2022-08-24T17:12:40.031Z,51.38
2022-08-24T17:15:09.637Z,53.27
2022-08-24T17:17:37.720Z,51.57
2022-08-24T17:20:09.519Z,51.53
2022-08-24T17:22:37.704Z,51.21
2022-08-24T17:25:06.164Z,51.00
2022-08-24T17:27:35.274Z,49.84
2022-08-24T17:30:06.620Z,49.05
2022-08-24T17:32:34.626Z,49.16
2022-08-24T17:35:03.404Z,49.74
2022-08-24T17:37:31.670Z,51.18
2022-08-24T17:40:01.045Z,50.43
2022-08-24T17:42:49.735Z,50.00
2022-08-24T17:45:18.235Z,51.36
2022-08-24T17:47:46.298Z,54.14
2022-08-24T17:50:16.369Z,52.39
2022-08-24T17:52:44.809Z,60.54
2022-08-24T17:55:15.405Z,65.23
2022-08-24T17:57:48.320Z,62.91
2022-08-24T18:00:18.406Z,62.49
2022-08-24T18:02:46.324Z,66.97
2022-08-24T18:05:15.147Z,70.26
2022-08-24T18:07:55.392Z,69.40
2022-08-24T18:10:26.058Z,78.93
2022-08-24T18:12:54.201Z,76.64
2022-08-24T18:15:34.781Z,83.48
2022-08-24T18:18:08.391Z,80.96
2022-08-24T18:20:39.006Z,84.71
2022-08-24T18:23:11.396Z,89.05
2022-08-24T18:25:48.469Z,90.16
2022-08-24T18:28:17.901Z,93.24
2022-08-24T18:30:47.387Z,96.70
2022-08-24T18:33:15.425Z,92.43
2022-08-24T18:35:43.187Z,91.41
2022-08-24T18:38:10.972Z,98.30
2022-08-24T18:40:40.550Z,97.81
2022-08-24T18:43:22.090Z,94.94
2022-08-24T18:45:51.413Z,96.08
2022-08-24T18:48:19.229Z,99.79
2022-08-24T18:50:48.040Z,99.35
2022-08-24T18:53:16.998Z,92.04
2022-08-24T18:55:47.154Z,93.01
2022-08-24T18:58:14.997Z,97.06
2022-08-24T19:00:43.396Z,88.13
2022-08-24T19:03:16.235Z,89.83
2022-08-24T19:05:45.385Z,89.19
2022-08-24T19:08:13.390Z,89.59
2022-08-24T19:10:41.705Z,95.41
2022-08-24T19:13:15.130Z,92.07
2022-08-24T19:15:46.617Z,98.46
2022-08-24T19:18:18.011Z,98.33
2022-08-24T19:20:49.080Z,98.89
2022-08-24T19:23:21.158Z,100.00
2022-08-24T19:25:49.333Z,100.00
2022-08-24T19:28:17.283Z,100.00
2022-08-24T19:30:46.731Z,100.00
2022-08-24T19:33:20.487Z,100.00
2022-08-24T19:35:48.227Z,100.00
2022-08-24T19:38:16.626Z,100.00
2022-08-24T19:40:47.674Z,100.00
2022-08-24T19:43:16.383Z,100.00
2022-08-24T19:46:05.306Z,100.00
2022-08-24T19:48:37.051Z,100.00
2022-08-24T19:51:06.855Z,100.00
2022-08-24T19:53:36.979Z,100.00
2022-08-24T19:56:05.441Z,100.00
2022-08-24T19:58:40.232Z,100.00
2022-08-24T20:01:12.681Z,100.00
2022-08-24T20:03:41.911Z,100.00
2022-08-24T20:06:09.977Z,100.00
2022-08-24T20:08:37.879Z,100.00
2022-08-24T20:11:06.272Z,100.00
2022-08-24T20:13:34.226Z,100.00
2022-08-24T20:16:02.563Z,100.00
2022-08-24T20:18:32.851Z,100.00
2022-08-24T20:21:02.852Z,100.00
2022-08-24T20:23:31.393Z,100.00
2022-08-24T20:26:01.976Z,100.00
2022-08-24T20:28:38.184Z,100.00
2022-08-24T20:31:06.623Z,100.00
2022-08-24T20:33:34.433Z,100.00
2022-08-24T20:36:04.017Z,100.00
2022-08-24T20:38:32.252Z,100.00
2022-08-24T20:41:00.496Z,100.00
2022-08-24T20:43:28.442Z,100.00
2022-08-24T20:45:56.802Z,100.00
2022-08-24T20:48:28.260Z,100.00
2022-08-24T20:50:56.467Z,100.00
2022-08-24T20:53:26.644Z,100.00
2022-08-24T20:55:57.372Z,100.00
2022-08-24T20:58:25.119Z,100.00
2022-08-24T21:00:52.937Z,100.00
2022-08-24T21:03:21.438Z,100.00
2022-08-24T21:05:52.249Z,100.00
2022-08-24T21:08:20.499Z,100.00
2022-08-24T21:10:49.693Z,100.00
2022-08-24T21:13:17.532Z,100.00
2022-08-24T21:15:45.615Z,100.00
2022-08-24T21:18:13.712Z,100.00
2022-08-24T21:20:59.860Z,100.00
2022-08-24T21:23:30.515Z,100.00
2022-08-24T21:26:00.181Z,100.00
2022-08-24T21:28:28.073Z,100.00
2022-08-24T21:30:55.926Z,100.00
2022-08-24T21:33:41.030Z,100.00
2022-08-24T21:36:09.632Z,100.00
2022-08-24T21:38:37.357Z,100.00
2022-08-24T21:41:08.381Z,100.00
2022-08-24T21:43:36.097Z,100.00
2022-08-24T21:46:03.856Z,100.00
2022-08-24T21:48:31.629Z,100.00
2022-08-24T21:50:59.384Z,100.00
2022-08-24T21:53:28.652Z,100.00
2022-08-24T21:55:57.087Z,100.00
2022-08-24T21:58:26.186Z,100.00
2022-08-24T22:00:54.014Z,100.00
2022-08-24T22:03:32.678Z,100.00
2022-08-24T22:06:08.586Z,100.00
2022-08-24T22:08:36.857Z,100.00
2022-08-24T22:11:05.116Z,100.00
2022-08-24T22:13:34.501Z,100.00
2022-08-24T22:16:03.037Z,100.00
2022-08-24T22:18:31.158Z,100.00
2022-08-24T22:20:59.280Z,100.00
2022-08-24T22:23:27.260Z,100.00
2022-08-24T22:25:55.634Z,100.00
2022-08-24T22:28:24.244Z,100.00
2022-08-24T22:30:53.379Z,100.00
2022-08-24T22:33:21.149Z,100.00
2022-08-24T22:35:50.299Z,100.00
2022-08-24T22:38:18.390Z,100.00
2022-08-24T22:40:46.200Z,100.00
2022-08-24T22:43:14.118Z,100.00
2022-08-24T22:45:41.807Z,100.00
2022-08-24T22:48:10.868Z,100.00
2022-08-24T22:50:38.670Z,100.00
2022-08-24T22:53:06.649Z,100.00
2022-08-24T22:55:34.565Z,100.00
2022-08-24T22:58:02.242Z,100.00
2022-08-24T23:00:29.980Z,100.00
2022-08-24T23:02:57.730Z,100.00
2022-08-24T23:05:27.087Z,100.00
2022-08-24T23:07:54.874Z,100.00
2022-08-24T23:10:22.581Z,100.00
2022-08-24T23:12:50.301Z,100.00
2022-08-24T23:15:18.380Z,100.00
2022-08-24T23:17:46.186Z,100.00
2022-08-24T23:20:13.358Z,100.00
2022-08-24T23:22:43.416Z,100.00
2022-08-24T23:25:13.888Z,100.00
2022-08-24T23:27:44.499Z,100.00
2022-08-24T23:30:15.727Z,100.00
2022-08-24T23:32:43.799Z,100.00
2022-08-24T23:35:11.673Z,100.00
2022-08-24T23:37:39.580Z,100.00
2022-08-24T23:40:09.981Z,100.00
2022-08-24T23:42:37.812Z,100.00
2022-08-24T23:45:07.779Z,100.00
2022-08-24T23:47:39.742Z,100.00
2022-08-24T23:50:11.283Z,100.00
2022-08-24T23:52:40.212Z,100.00
2022-08-24T23:55:20.889Z,100.00
2022-08-24T23:57:49.546Z,100.00
